Time;durP1;ratioP1;P1;durP2;ratioP2;P2;SDS_P1;SDS_P2;PMS_P1;PMS_P2;Temp;Humidity;BMP_temperature;BMP_pressure;BME280_temperature;BME280_humidity;BME280_pressure;Samples;Min_cycle;Max_cycle;Signal;HPM_P1;HPM_P2
2022/01/18 00:01:31;;;;;;;;;;;;;;;0.76;100.00;101189.00;5072064;28;19924;-74
2022/01/18 00:03:58;;;;;;;;;;;;;;;0.65;100.00;101182.06;5073377;28;20007;-73
2022/01/18 00:06:26;;;;;;;;;;;;;;;0.73;100.00;101184.09;5073408;28;19924;-74
2022/01/18 00:08:53;;;;;;;;;;;;;;;0.72;100.00;101185.25;5072047;28;19929;-74
2022/01/18 00:11:23;;;;;;;;;;;;;;;0.63;100.00;101178.00;5073173;28;19932;-74
2022/01/18 00:13:58;;;;;;;;;;;;;;;0.64;100.00;101174.94;5072754;28;19924;-74
2022/01/18 00:16:38;;;;;;;;;;;;;;;0.65;100.00;101176.56;5059200;28;19931;-73
2022/01/18 00:19:10;;;;;;;;;;;;;;;0.69;100.00;101183.09;5077087;28;19930;-73
2022/01/18 00:24:24;;;;;;;;;;;;;;;0.28;100.00;101178.72;5075630;28;19945;-74
2022/01/18 00:26:51;;;;;;;;;;;;;;;0.36;100.00;101186.25;5075462;28;19924;-74
2022/01/18 00:29:21;;;;;;;;;;;;;;;0.25;100.00;101182.91;5058698;28;20307;-74
2022/01/18 00:32:01;;;;;;;;;;;;;;;0.35;100.00;101171.69;5081688;28;19924;-74
2022/01/18 00:34:32;;;;;;;;;;;;;;;0.37;100.00;101169.47;5097836;28;20371;-73
2022/01/18 00:39:36;;;;;;;;;;;;;;;0.48;100.00;101172.81;5095679;28;19924;-74
2022/01/18 00:42:04;;;;;;;;;;;;;;;0.47;100.00;101169.25;5096813;28;19931;-74
2022/01/18 00:44:31;;;;;;;;;;;;;;;0.51;100.00;101170.28;5078613;28;20068;-74
2022/01/18 00:46:59;;;;;;;;;;;;;;;0.42;100.00;101172.13;5096663;28;19928;-74
2022/01/18 00:49:26;;;;;;;;;;;;;;;0.46;100.00;101167.63;5095327;28;19924;-73
2022/01/18 00:51:56;;;;;;;;;;;;;;;0.47;100.00;101169.25;5096604;28;20008;-74
2022/01/18 00:54:32;;;;;;;;;;;;;;;0.38;100.00;101176.56;5095708;28;20015;-73
2022/01/18 00:56:59;;;;;;;;;;;;;;;0.43;100.00;101170.16;5095069;28;19925;-74
2022/01/18 00:59:26;;;;;;;;;;;;;;;0.44;100.00;101169.84;5096199;28;20022;-74
2022/01/18 01:01:53;;;;;;;;;;;;;;;0.31;100.00;101165.19;5096254;28;19924;-74
2022/01/18 01:04:23;;;;;;;;;;;;;;;0.43;100.00;101162.72;5094885;28;19928;-74
2022/01/18 01:06:50;;;;;;;;;;;;;;;0.31;100.00;101164.34;5095911;28;19934;-74
2022/01/18 01:09:17;;;;;;;;;;;;;;;0.31;100.00;101164.34;5094734;28;19924;-74
2022/01/18 01:11:44;;;;;;;;;;;;;;;0.28;100.00;101163.03;5094914;28;19924;-74
2022/01/18 01:14:17;;;;;;;;;;;;;;;0.32;100.00;101158.56;5096077;28;20006;-73
2022/01/18 01:43:37;;;;;;;;;;;;;;;0.17;100.00;101127.81;5075266;28;19931;-73
2022/01/18 01:46:04;;;;;;;;;;;;;;;-0.14;100.00;101124.84;5057864;28;19924;-74
2022/01/18 01:48:31;;;;;;;;;;;;;;;-0.18;100.00;101132.03;5075383;28;19928;-73
2022/01/18 01:51:03;;;;;;;;;;;;;;;-0.14;100.00;101119.34;5057626;28;20376;-74
2022/01/18 01:53:31;;;;;;;;;;;;;;;-0.24;100.00;101119.50;5074098;28;19924;-73
2022/01/18 01:55:58;;;;;;;;;;;;;;;-0.08;100.00;101109.88;5074958;28;20035;-73
2022/01/18 01:58:26;;;;;;;;;;;;;;;-0.18;100.00;101119.13;5073944;28;19968;-74
2022/01/18 02:00:55;;;;;;;;;;;;;;;-0.31;100.00;101116.34;5074000;28;19925;-73
2022/01/18 02:03:22;;;;;;;;;;;;;;;-0.27;100.00;101120.09;5073820;28;19932;-73
2022/01/18 02:05:50;;;;;;;;;;;;;;;-0.15;100.00;101118.50;5075035;28;20342;-74
2022/01/18 02:08:19;;;;;;;;;;;;;;;-0.39;100.00;101111.53;5075078;28;19949;-74
2022/01/18 02:10:47;;;;;;;;;;;;;;;-0.20;100.00;101115.06;5056874;28;19925;-74
2022/01/18 02:13:15;;;;;;;;;;;;;;;-0.21;100.00;101113.41;5074849;28;19925;-73
2022/01/18 02:24:08;;;;;;;;;;;;;;;-0.14;100.00;101103.63;5052457;28;19925;-73
2022/01/18 02:26:36;;;;;;;;;;;;;;;-0.23;100.00;101105.47;5052204;28;19932;-73
2022/01/18 02:29:04;;;;;;;;;;;;;;;-0.35;100.00;101102.41;5035403;28;20020;-73
2022/01/18 02:31:33;;;;;;;;;;;;;;;-0.39;100.00;101100.56;5052288;28;19991;-73
2022/01/18 02:34:01;;;;;;;;;;;;;;;-0.46;100.00;101091.91;5052339;28;19925;-73
2022/01/18 02:36:28;;;;;;;;;;;;;;;-0.33;100.00;101100.16;5051677;28;20067;-74
2022/01/18 02:38:55;;;;;;;;;;;;;;;-0.33;100.00;101094.66;5035429;28;20288;-73
2022/01/18 02:41:29;;;;;;;;;;;;;;;-0.78;100.00;101095.47;5051884;28;20448;-73
2022/01/18 02:44:02;;;;;;;;;;;;;;;-0.56;100.00;101092.09;5035585;28;19925;-73
2022/01/18 02:46:29;;;;;;;;;;;;;;;-0.35;100.00;101096.09;5052077;28;20392;-73
2022/01/18 02:48:57;;;;;;;;;;;;;;;-0.19;100.00;101097.44;5068479;28;19924;-73
2022/01/18 02:51:24;;;;;;;;;;;;;;;-0.37;100.00;101090.09;5035586;28;19956;-73
2022/01/18 02:53:57;;;;;;;;;;;;;;;-0.35;100.00;101090.59;5052070;28;19928;-73
2022/01/18 02:56:25;;;;;;;;;;;;;;;-0.24;100.00;101090.09;5053706;28;19924;-73
2022/01/18 02:58:59;;;;;;;;;;;;;;;-0.19;100.00;101084.53;5054320;28;20380;-73
2022/01/18 03:04:12;;;;;;;;;;;;;;;-0.14;100.00;101075.38;5054180;28;20265;-73
2022/01/18 03:06:39;;;;;;;;;;;;;;;-0.26;100.00;101073.09;5054148;28;19925;-73
2022/01/18 03:09:06;;;;;;;;;;;;;;;-0.31;100.00;101069.66;5053931;28;20579;-73
2022/01/18 03:11:34;;;;;;;;;;;;;;;-0.24;100.00;101064.56;5053987;28;20381;-73
2022/01/18 03:14:01;;;;;;;;;;;;;;;-0.18;100.00;101057.84;5054134;28;20344;-74
2022/01/18 03:16:28;;;;;;;;;;;;;;;-0.17;100.00;101060.28;5053999;28;19931;-74
2022/01/18 03:18:55;;;;;;;;;;;;;;;-0.32;100.00;101057.81;5052813;28;20386;-74
2022/01/18 03:21:22;;;;;;;;;;;;;;;-0.27;100.00;101055.00;5069456;28;19924;-73
2022/01/18 03:23:54;;;;;;;;;;;;;;;-0.35;100.00;101057.66;5085822;28;20387;-73
2022/01/18 03:26:31;;;;;;;;;;;;;;;-0.27;100.00;101051.41;5053976;28;19925;-73
2022/01/18 03:28:58;;;;;;;;;;;;;;;-0.20;100.00;101051.84;5085757;28;19994;-73
2022/01/18 03:31:25;;;;;;;;;;;;;;;-0.22;100.00;101046.66;5057452;28;19932;-73
2022/01/18 03:33:52;;;;;;;;;;;;;;;-0.24;100.00;101037.91;5092934;28;19928;-73
2022/01/18 03:36:20;;;;;;;;;;;;;;;-0.30;100.00;101043.78;5094088;28;20372;-74
2022/01/18 03:38:47;;;;;;;;;;;;;;;-0.34;100.00;101051.84;5126701;28;19991;-74
2022/01/18 03:41:14;;;;;;;;;;;;;;;-0.32;100.00;101051.53;5092962;28;19924;-73
2022/01/18 03:43:42;;;;;;;;;;;;;;;-0.45;100.00;101055.06;5075959;28;20391;-73
2022/01/18 03:46:10;;;;;;;;;;;;;;;-0.53;100.00;101055.78;5092707;28;20371;-73
2022/01/18 03:48:38;;;;;;;;;;;;;;;-0.47;100.00;101043.59;5093106;28;20383;-73
2022/01/18 03:51:07;;;;;;;;;;;;;;;-0.37;100.00;101046.13;5096908;28;20011;-73
2022/01/18 03:53:34;;;;;;;;;;;;;;;-0.35;100.00;101041.97;5097684;28;19924;-73
2022/01/18 03:56:01;;;;;;;;;;;;;;;-0.37;100.00;101054.38;5097937;28;19985;-73
2022/01/18 03:58:28;;;;;;;;;;;;;;;-0.40;100.00;101046.75;5096630;28;20012;-73
2022/01/18 04:00:56;;;;;;;;;;;;;;;-0.40;100.00;101049.50;5096796;28;19930;-74
2022/01/18 04:03:23;;;;;;;;;;;;;;;-0.44;100.00;101045.72;5097766;28;20035;-73
2022/01/18 04:05:52;;;;;;;;;;;;;;;-0.45;100.00;101041.34;5096548;28;20022;-73
2022/01/18 04:08:20;;;;;;;;;;;;;;;-0.41;100.00;101042.38;5096171;28;20305;-73
2022/01/18 04:10:47;;;;;;;;;;;;;;;-0.47;100.00;101049.09;5096122;28;20001;-74
2022/01/18 04:13:14;;;;;;;;;;;;;;;-0.41;100.00;101036.88;5096545;28;19928;-74
2022/01/18 04:15:41;;;;;;;;;;;;;;;-0.41;100.00;101042.38;5097650;28;20022;-74
2022/01/18 04:18:46;;;;;;;;;;;;;;;-0.43;100.00;101041.84;5097365;28;20089;-74
2022/01/18 04:29:00;;;;;;;;;;;;;;;-0.41;100.00;101026.69;5096973;28;20008;-74
2022/01/18 04:31:27;;;;;;;;;;;;;;;-0.40;100.00;101016.53;5093784;28;19924;-74
2022/01/18 04:33:56;;;;;;;;;;;;;;;-0.41;100.00;101020.41;5075484;28;19924;-74
2022/01/18 04:36:24;;;;;;;;;;;;;;;-0.44;100.00;101010.03;5076480;28;20081;-73
2022/01/18 04:38:51;;;;;;;;;;;;;;;-0.45;100.00;101008.38;5076670;28;19924;-73
2022/01/18 04:41:25;;;;;;;;;;;;;;;-0.49;100.00;101007.38;5076703;28;19924;-73
2022/01/18 04:44:11;;;;;;;;;;;;;;;-0.54;100.00;101010.19;5076709;28;19924;-73
2022/01/18 04:49:24;;;;;;;;;;;;;;;-0.76;100.00;101007.34;5058717;28;20021;-73
2022/01/18 04:51:52;;;;;;;;;;;;;;;-0.69;100.00;101010.47;5058642;28;20375;-73
2022/01/18 04:54:19;;;;;;;;;;;;;;;-0.72;100.00;101002.84;5076505;28;19964;-73
2022/01/18 04:59:14;;;;;;;;;;;;;;;-0.71;100.00;101002.56;5074972;28;19928;-74
2022/01/18 05:01:42;;;;;;;;;;;;;;;-0.82;100.00;101011.28;5074847;28;19930;-74
2022/01/18 05:04:10;;;;;;;;;;;;;;;-0.73;100.00;100998.50;5076082;28;19931;-73
2022/01/18 05:06:38;;;;;;;;;;;;;;;-0.67;100.00;100995.34;5075132;28;19924;-73
2022/01/18 05:09:08;;;;;;;;;;;;;;;-0.81;100.00;101001.94;5076010;28;19978;-73
2022/01/18 05:11:44;;;;;;;;;;;;;;;-0.78;100.00;100993.09;5075112;28;19925;-74
2022/01/18 05:14:24;;;;;;;;;;;;;;;-0.98;100.00;100993.44;5075087;28;19928;-73
2022/01/18 05:17:09;;;;;;;;;;;;;;;-0.86;100.00;100991.84;5058544;28;19925;-73
2022/01/18 05:20:54;;;;;;;;;;;;;;;-0.85;100.00;100987.19;5074575;28;20406;-73
2022/01/18 05:25:18;;;;;;;;;;;;;;;-0.98;100.00;100987.94;5075911;28;20334;-73
2022/01/18 05:27:45;;;;;;;;;;;;;;;-1.08;100.00;100977.16;5075909;28;19928;-74
2022/01/18 05:30:12;;;;;;;;;;;;;;;-0.93;100.00;100988.69;5075589;28;19924;-73
2022/01/18 05:32:39;;;;;;;;;;;;;;;-0.82;100.00;100986.59;5087564;28;19924;-74
2022/01/18 05:35:06;;;;;;;;;;;;;;;-0.84;100.00;100991.56;5095383;28;19931;-73
2022/01/18 05:37:33;;;;;;;;;;;;;;;-0.84;100.00;100986.06;5094337;28;19961;-73
2022/01/18 05:40:01;;;;;;;;;;;;;;;-0.82;100.00;100986.59;5094118;28;20438;-74
2022/01/18 05:42:28;;;;;;;;;;;;;;;-0.79;100.00;100986.78;5090180;28;20019;-74
2022/01/18 05:44:55;;;;;;;;;;;;;;;-0.75;100.00;100987.00;5078608;28;19924;-74
2022/01/18 05:47:24;;;;;;;;;;;;;;;-0.84;100.00;100977.81;5074156;28;19924;-73
2022/01/18 05:49:53;;;;;;;;;;;;;;;-0.72;100.00;100975.41;5120356;27;20294;-73
2022/01/18 05:52:20;;;;;;;;;;;;;;;-0.73;100.00;100976.53;5095498;28;20348;-74
2022/01/18 05:54:47;;;;;;;;;;;;;;;-0.91;100.00;100983.69;5077535;28;20262;-74
2022/01/18 05:57:14;;;;;;;;;;;;;;;-0.71;100.00;100971.56;5095484;28;19931;-73
2022/01/18 05:59:45;;;;;;;;;;;;;;;-0.75;100.00;100976.00;5077413;28;19974;-74
2022/01/18 06:07:42;;;;;;;;;;;;;;;-1.08;100.00;100979.91;5040415;28;19929;-73
2022/01/18 06:10:09;;;;;;;;;;;;;;;-0.98;100.00;100979.72;5074847;28;20030;-73
2022/01/18 06:12:36;;;;;;;;;;;;;;;-0.98;100.00;100982.47;5074360;28;20294;-73
2022/01/18 06:15:04;;;;;;;;;;;;;;;-0.90;100.00;100984.53;5073656;28;19928;-74
2022/01/18 06:17:31;;;;;;;;;;;;;;;-1.03;100.00;100988.06;5073456;28;19931;-74
2022/01/18 06:19:58;;;;;;;;;;;;;;;-0.96;100.00;100993.97;5073412;28;20320;-73
2022/01/18 06:22:25;;;;;;;;;;;;;;;-1.32;100.00;100988.28;5074934;28;19959;-73
2022/01/18 06:24:52;;;;;;;;;;;;;;;-1.23;100.00;100988.41;5073362;28;20027;-73
2022/01/18 06:27:19;;;;;;;;;;;;;;;-1.18;100.00;100989.13;5074328;28;19971;-74
2022/01/18 06:29:45;;;;;;;;;;;;;;;-1.12;100.00;100992.59;5074463;28;20382;-73
2022/01/18 06:32:12;;;;;;;;;;;;;;;-1.17;100.00;100989.94;5073081;28;19946;-73
2022/01/18 06:34:41;;;;;;;;;;;;;;;-1.05;100.00;100991.09;5074706;28;20304;-73
2022/01/18 06:37:08;;;;;;;;;;;;;;;-1.13;100.00;100991.78;5074614;28;19977;-73
2022/01/18 06:39:35;;;;;;;;;;;;;;;-0.93;100.00;100996.94;5074357;28;19924;-73
2022/01/18 06:42:05;;;;;;;;;;;;;;;-0.94;100.00;100989.00;5073153;28;20392;-73
2022/01/18 06:44:32;;;;;;;;;;;;;;;-0.89;100.00;100991.63;5074300;28;20321;-73
2022/01/18 06:46:59;;;;;;;;;;;;;;;-0.85;100.00;100998.16;5072915;28;19924;-73
2022/01/18 06:49:26;;;;;;;;;;;;;;;-0.79;100.00;100999.69;5074217;28;19924;-74
2022/01/18 06:51:53;;;;;;;;;;;;;;;-0.79;100.00;100988.72;5074078;28;20035;-73
2022/01/18 06:54:20;;;;;;;;;;;;;;;-0.77;100.00;101003.75;5053215;28;20019;-73
2022/01/18 06:56:49;;;;;;;;;;;;;;;-0.99;100.00;101000.06;5053171;28;19925;-73
2022/01/18 06:59:17;;;;;;;;;;;;;;;-1.19;100.00;100994.91;5036413;28;19932;-73
2022/01/18 07:01:44;;;;;;;;;;;;;;;-1.23;100.00;100997.44;5053679;28;19925;-73
2022/01/18 07:04:12;;;;;;;;;;;;;;;-1.09;100.00;100997.50;5054016;28;20074;-73
2022/01/18 07:06:39;;;;;;;;;;;;;;;-1.15;100.00;100998.69;5054214;28;19928;-74
2022/01/18 07:09:06;;;;;;;;;;;;;;;-1.01;100.00;100999.53;5053824;28;20066;-73
2022/01/18 07:11:34;;;;;;;;;;;;;;;-1.04;100.00;101002.88;5052570;28;20383;-73
2022/01/18 07:14:01;;;;;;;;;;;;;;;-1.04;100.00;101005.63;5086083;28;20026;-73
2022/01/18 07:16:28;;;;;;;;;;;;;;;-0.98;100.00;101009.91;5070126;28;20023;-74
2022/01/18 07:18:55;;;;;;;;;;;;;;;-0.81;100.00;101007.41;5073819;28;19924;-73
2022/01/18 07:21:22;;;;;;;;;;;;;;;-0.99;100.00;101003.63;5072579;28;19932;-73
2022/01/18 07:23:52;;;;;;;;;;;;;;;-0.90;100.00;101001.00;5055631;28;20437;-73
2022/01/18 07:26:18;;;;;;;;;;;;;;;-1.00;100.00;100992.94;5072505;28;19924;-73
2022/01/18 07:28:45;;;;;;;;;;;;;;;-0.93;100.00;101012.56;5073384;28;19994;-73
2022/01/18 07:31:13;;;;;;;;;;;;;;;-0.92;100.00;101015.00;5065434;28;19978;-73
2022/01/18 07:33:40;;;;;;;;;;;;;;;-0.95;100.00;101020.28;5061480;28;19925;-73
2022/01/18 07:36:07;;;;;;;;;;;;;;;-0.90;100.00;101029.25;5045895;28;20027;-73
2022/01/18 07:38:34;;;;;;;;;;;;;;;-0.91;100.00;101024.06;5063683;28;19983;-73
2022/01/18 07:41:01;;;;;;;;;;;;;;;-0.84;100.00;101013.50;5059185;28;19924;-73
2022/01/18 07:43:28;;;;;;;;;;;;;;;-0.79;100.00;101013.44;5044948;28;19925;-74
2022/01/18 07:45:56;;;;;;;;;;;;;;;-0.78;100.00;101024.09;5044478;28;19982;-74
2022/01/18 07:48:24;;;;;;;;;;;;;;;-0.75;100.00;101014.44;5064115;28;19932;-73
2022/01/18 07:50:57;;;;;;;;;;;;;;;-0.75;100.00;101015.25;5029075;28;19924;-74
2022/01/18 07:53:25;;;;;;;;;;;;;;;-0.69;100.00;101013.22;5044526;28;20002;-74
2022/01/18 07:55:52;;;;;;;;;;;;;;;-0.97;100.00;101011.56;5064622;28;19924;-73
2022/01/18 07:58:19;;;;;;;;;;;;;;;-0.69;100.00;101002.25;5047301;28;19939;-73
2022/01/18 08:00:47;;;;;;;;;;;;;;;-0.65;100.00;100998.59;5063568;28;20439;-74
2022/01/18 08:03:14;;;;;;;;;;;;;;;-0.72;100.00;101002.84;5063328;28;19974;-74
2022/01/18 08:05:41;;;;;;;;;;;;;;;-0.53;100.00;100995.38;5049677;28;19964;-74
2022/01/18 08:08:08;;;;;;;;;;;;;;;-0.38;100.00;100992.31;5055409;28;20272;-73
2022/01/18 08:10:35;;;;;;;;;;;;;;;-0.24;100.00;100987.63;5072996;28;19947;-74
2022/01/18 08:13:03;;;;;;;;;;;;;;;-0.71;100.00;100988.81;5038863;28;19962;-73
2022/01/18 08:15:38;;;;;;;;;;;;;;;-0.39;100.00;100990.69;5073228;28;19935;-73
2022/01/18 08:18:10;;;;;;;;;;;;;;;-0.15;100.00;100988.53;5073309;28;19931;-73
2022/01/18 08:20:37;;;;;;;;;;;;;;;-0.62;100.00;100992.50;5073040;28;19924;-73
2022/01/18 08:23:04;;;;;;;;;;;;;;;-0.25;100.00;100986.00;5038889;28;19958;-73
2022/01/18 08:25:34;;;;;;;;;;;;;;;0.02;100.00;100985.97;5048726;28;19986;-73
2022/01/18 08:28:02;;;;;;;;;;;;;;;-0.25;100.00;100991.50;5052391;28;19931;-72
2022/01/18 08:30:29;;;;;;;;;;;;;;;-0.04;100.00;100998.19;5072859;28;19924;-72
2022/01/18 08:32:57;;;;;;;;;;;;;;;0.21;100.00;100988.59;5071963;28;20332;-78
2022/01/18 08:35:25;;;;;;;;;;;;;;;0.45;100.00;100989.97;5074461;28;19932;-72
2022/01/18 08:37:52;;;;;;;;;;;;;;;0.62;100.00;100989.28;5076291;28;20015;-72
2022/01/18 08:40:19;;;;;;;;;;;;;;;0.74;100.00;100986.78;5076070;28;19959;-72
2022/01/18 08:42:46;;;;;;;;;;;;;;;0.78;100.00;100983.09;5076025;28;19935;-73
2022/01/18 08:45:13;;;;;;;;;;;;;;;0.80;100.00;100996.56;5073845;28;19954;-72
2022/01/18 08:47:40;;;;;;;;;;;;;;;1.09;100.00;100994.97;5058344;28;20030;-72
2022/01/18 08:50:08;;;;;;;;;;;;;;;1.51;100.00;101005.44;5075287;28;19978;-73
2022/01/18 08:52:34;;;;;;;;;;;;;;;1.69;100.00;101001.63;5076572;28;20375;-74
2022/01/18 08:55:02;;;;;;;;;;;;;;;2.01;100.00;101010.63;5076289;28;20280;-73
2022/01/18 08:57:28;;;;;;;;;;;;;;;1.82;100.00;100999.84;5075260;28;19925;-73
2022/01/18 08:59:56;;;;;;;;;;;;;;;2.11;100.00;101010.31;5075281;28;19925;-74
2022/01/18 09:02:22;;;;;;;;;;;;;;;2.12;100.00;101010.00;5076250;28;19931;-73
2022/01/18 09:04:50;;;;;;;;;;;;;;;2.28;100.00;101002.09;5074304;28;19930;-74
2022/01/18 09:07:19;;;;;;;;;;;;;;;2.62;100.00;101000.16;5099760;28;19959;-75
2022/01/18 09:09:51;;;;;;;;;;;;;;;2.63;100.00;101007.34;5069627;28;20023;-75
2022/01/18 09:12:18;;;;;;;;;;;;;;;2.84;100.00;101008.31;5069530;28;19931;-74
2022/01/18 09:14:45;;;;;;;;;;;;;;;2.92;100.00;101012.19;5071089;28;19978;-75
2022/01/18 09:17:13;;;;;;;;;;;;;;;2.96;100.00;100997.41;5068386;28;19975;-74
2022/01/18 09:19:40;;;;;;;;;;;;;;;3.28;100.00;101009.88;5068559;28;19931;-76
2022/01/18 09:22:08;;;;;;;;;;;;;;;3.06;100.00;101012.84;5069271;28;19935;-74
2022/01/18 09:24:35;;;;;;;;;;;;;;;3.22;100.00;101008.41;5067106;28;19963;-75
2022/01/18 09:27:03;;;;;;;;;;;;;;;3.25;100.00;101005.00;5067630;28;20011;-74
2022/01/18 09:29:31;;;;;;;;;;;;;;;3.15;100.00;101002.59;5070738;28;19924;-76
2022/01/18 09:31:58;;;;;;;;;;;;;;;3.64;100.00;101004.72;5053044;28;20007;-75
2022/01/18 09:34:25;;;;;;;;;;;;;;;4.03;100.00;101001.59;5067313;28;19931;-77
2022/01/18 09:36:52;;;;;;;;;;;;;;;4.39;100.00;100999.09;5072272;28;19932;-76
2022/01/18 09:39:19;;;;;;;;;;;;;;;4.84;100.00;100999.25;5070567;28;19947;-75
2022/01/18 09:41:51;;;;;;;;;;;;;;;5.13;100.00;100999.97;5069582;28;20409;-75
2022/01/18 09:44:19;;;;;;;;;;;;;;;5.58;100.00;100998.00;5068402;28;19939;-75
2022/01/18 09:46:50;;;;;;;;;;;;;;;5.83;100.00;100993.31;5071885;28;19924;-74
2022/01/18 09:49:18;;;;;;;;;;;;;;;6.11;100.00;100987.88;5068114;28;19959;-78
2022/01/18 09:51:46;;;;;;;;;;;;;;;6.20;100.00;100985.78;5070797;28;19932;-74
2022/01/18 09:54:13;;;;;;;;;;;;;;;6.51;100.00;100977.66;5070602;28;20347;-75
2022/01/18 09:56:41;;;;;;;;;;;;;;;6.48;100.00;100976.38;5071631;28;19932;-76
2022/01/18 09:59:08;;;;;;;;;;;;;;;6.34;100.00;100980.69;5069746;28;19997;-80
2022/01/18 10:01:36;;;;;;;;;;;;;;;6.72;100.00;100986.63;5067261;28;19928;-77
2022/01/18 10:04:18;;;;;;;;;;;;;;;6.73;100.00;100988.25;5068288;28;20531;-74
2022/01/18 10:06:50;;;;;;;;;;;;;;;6.93;100.00;100993.63;5070916;28;19929;-75
2022/01/18 10:09:18;;;;;;;;;;;;;;;6.95;100.00;100993.28;5066744;28;20265;-75
2022/01/18 10:12:06;;;;;;;;;;;;;;;6.92;100.00;100997.53;5068581;28;19932;-73
2022/01/18 10:14:34;;;;;;;;;;;;;;;6.96;100.00;100995.69;5066726;28;19978;-74
2022/01/18 10:17:02;;;;;;;;;;;;;;;7.09;100.00;100990.88;5069679;28;20470;-74
2022/01/18 10:19:30;;;;;;;;;;;;;;;6.86;100.00;101004.53;5069249;28;19954;-76
2022/01/18 10:22:33;;;;;;;;;;;;;;;6.81;100.00;100998.41;5069147;28;19932;-74
2022/01/18 10:28:41;;;;;;;;;;;;;;;6.90;100.00;101004.63;5055547;28;20721;-74
2022/01/18 10:31:36;;;;;;;;;;;;;;;6.97;100.00;100996.50;5070503;28;19924;-74
2022/01/18 10:37:08;;;;;;;;;;;;;;;7.24;100.00;100993.72;5070040;28;19924;-74
2022/01/18 10:39:39;;;;;;;;;;;;;;;7.52;100.00;100981.72;5068407;28;19925;-75
2022/01/18 10:42:19;;;;;;;;;;;;;;;7.65;100.00;100986.84;5070794;28;20383;-74
2022/01/18 10:44:57;;;;;;;;;;;;;;;7.09;100.00;100979.75;5069188;28;19925;-75
2022/01/18 10:47:26;;;;;;;;;;;;;;;6.39;100.00;100988.78;5069382;28;19986;-75
2022/01/18 10:49:53;;;;;;;;;;;;;;;6.36;100.00;100978.38;5067376;28;20327;-75
2022/01/18 10:52:22;;;;;;;;;;;;;;;6.55;100.00;100984.13;5069333;28;19924;-75
2022/01/18 10:54:56;;;;;;;;;;;;;;;6.31;100.00;100981.38;5068841;28;19974;-75
2022/01/18 10:57:25;;;;;;;;;;;;;;;6.38;100.00;100987.16;5070077;28;19924;-75
2022/01/18 11:00:02;;;;;;;;;;;;;;;6.47;100.00;100974.75;5069627;28;19930;-73
2022/01/18 11:02:34;;;;;;;;;;;;;;;6.31;100.00;100976.66;5068609;28;20407;-73
2022/01/18 11:05:11;;;;;;;;;;;;;;;6.38;100.00;100970.50;5069629;28;19928;-73
2022/01/18 11:07:39;;;;;;;;;;;;;;;6.51;100.00;100967.34;5051707;28;19931;-73
2022/01/18 11:10:08;;;;;;;;;;;;;;;6.61;100.00;100963.28;5070299;28;20463;-74
2022/01/18 11:12:47;;;;;;;;;;;;;;;6.70;100.00;100961.16;5069472;28;19963;-74
2022/01/18 11:15:21;;;;;;;;;;;;;;;6.60;100.00;100961.66;5069994;28;19935;-74
2022/01/18 11:17:58;;;;;;;;;;;;;;;6.80;100.00;100955.13;5068333;28;19931;-73
2022/01/18 11:20:30;;;;;;;;;;;;;;;6.89;100.00;100955.78;5068580;28;20019;-72
2022/01/18 11:22:57;;;;;;;;;;;;;;;7.04;100.00;100949.47;5051450;28;19925;-73
2022/01/18 11:25:25;;;;;;;;;;;;;;;7.22;100.00;100945.19;5070330;28;20011;-73
2022/01/18 11:27:52;;;;;;;;;;;;;;;7.25;100.00;100944.47;5069245;28;19925;-73
2022/01/18 11:30:21;;;;;;;;;;;;;;;7.45;100.00;100939.84;5068737;28;20287;-73
2022/01/18 11:32:50;;;;;;;;;;;;;;;7.47;100.00;100934.72;5094549;28;19924;-73
2022/01/18 11:35:29;;;;;;;;;;;;;;;7.41;100.00;100928.59;5071640;28;19924;-73
2022/01/18 11:38:01;;;;;;;;;;;;;;;7.38;100.00;100915.41;5053165;28;20017;-74
2022/01/18 11:40:42;;;;;;;;;;;;;;;7.06;100.00;100916.53;5053376;28;20066;-73
2022/01/18 11:43:09;;;;;;;;;;;;;;;7.26;100.00;100921.06;5052318;28;19982;-73
2022/01/18 11:45:39;;;;;;;;;;;;;;;7.29;100.00;100903.66;5053463;28;19924;-73
2022/01/18 11:48:06;;;;;;;;;;;;;;;7.49;100.00;100916.50;5052150;28;19935;-73
2022/01/18 11:50:36;;;;;;;;;;;;;;;7.30;100.00;100902.47;5053206;28;20613;-73
2022/01/18 11:53:45;;;;;;;;;;;;;;;7.44;100.00;100900.06;5052138;28;19947;-73
2022/01/18 11:56:13;;;;;;;;;;;;;;;7.64;100.00;100900.97;5053583;28;20015;-73
2022/01/18 11:58:43;;;;;;;;;;;;;;;7.88;100.00;100878.50;5063842;28;20411;-73
2022/01/18 12:01:12;;;;;;;;;;;;;;;8.07;100.00;100876.59;5097023;28;19928;-73
2022/01/18 12:03:45;;;;;;;;;;;;;;;8.20;100.00;100872.50;5072697;28;19924;-73
2022/01/18 12:06:12;;;;;;;;;;;;;;;8.37;100.00;100869.31;5072957;28;19924;-73
2022/01/18 12:08:40;;;;;;;;;;;;;;;8.49;100.00;100865.56;5071886;28;19924;-73
2022/01/18 12:11:10;;;;;;;;;;;;;;;8.72;100.00;100847.72;5074910;28;20394;-73
2022/01/18 12:13:39;;;;;;;;;;;;;;;8.97;100.00;100848.22;5075821;28;19930;-74
2022/01/18 12:16:10;;;;;;;;;;;;;;;8.95;100.00;100840.22;5059232;28;19963;-74
2022/01/18 12:18:49;;;;;;;;;;;;;;;9.14;100.00;100842.97;5077030;28;20015;-73
2022/01/18 12:21:20;;;;;;;;;;;;;;;9.35;100.00;100836.13;5076637;28;20023;-73
2022/01/18 12:23:48;;;;;;;;;;;;;;;9.34;100.00;100835.34;5075670;28;20405;-74
2022/01/18 12:26:33;;;;;;;;;;;;;;;9.28;100.00;100830.44;5076789;28;19929;-73
2022/01/18 12:29:21;;;;;;;;;;;;;;;9.28;100.00;100820.09;5075391;28;19964;-74
2022/01/18 12:37:20;;;;;;;;;;;;;;;9.43;100.00;100816.38;5076644;28;19931;-73
2022/01/18 12:39:50;;;;;;;;;;;;;;;9.77;100.00;100808.91;5076703;28;20329;-73
2022/01/18 12:45:23;;;;;;;;;;;;;;;9.81;100.00;100798.59;5076668;28;19928;-73
2022/01/18 12:47:55;;;;;;;;;;;;;;;10.08;100.00;100794.63;5075353;28;19948;-73
2022/01/18 12:50:30;;;;;;;;;;;;;;;10.42;100.00;100790.69;5076186;28;19926;-73
2022/01/18 12:52:58;;;;;;;;;;;;;;;10.35;100.00;100791.38;5075482;28;20011;-73
2022/01/18 12:55:27;;;;;;;;;;;;;;;10.70;100.00;100790.97;5076476;28;20031;-73
2022/01/18 12:58:06;;;;;;;;;;;;;;;10.76;100.00;100772.66;5075022;28;19982;-73
2022/01/18 13:00:40;;;;;;;;;;;;;;;10.92;100.00;100784.41;5075607;28;20032;-73
2022/01/18 13:03:08;;;;;;;;;;;;;;;10.96;100.00;100777.66;5073181;28;19925;-73
2022/01/18 13:05:40;;;;;;;;;;;;;;;10.92;100.00;100776.84;5075727;28;19967;-73
2022/01/18 13:08:08;;;;;;;;;;;;;;;11.02;100.00;100766.94;5071833;28;19971;-73
2022/01/18 13:10:46;;;;;;;;;;;;;;;11.11;100.00;100767.41;5076264;28;19932;-73
2022/01/18 13:13:15;;;;;;;;;;;;;;;11.04;100.00;100772.97;5072056;28;20299;-73
2022/01/18 13:15:50;;;;;;;;;;;;;;;11.20;100.00;100765.09;5073981;28;19931;-73
2022/01/18 13:23:56;;;;;;;;;;;;;;;10.67;100.00;100747.84;5071898;28;19924;-73
2022/01/18 13:26:41;;;;;;;;;;;;;;;10.91;100.00;100746.44;5071699;28;20465;-74
2022/01/18 13:29:23;;;;;;;;;;;;;;;11.03;100.00;100748.19;5071629;28;20003;-73
2022/01/18 13:32:00;;;;;;;;;;;;;;;11.07;100.00;100749.00;5078400;28;20069;-73
2022/01/18 13:34:35;;;;;;;;;;;;;;;10.81;100.00;100749.97;5074554;28;20323;-73
2022/01/18 13:37:04;;;;;;;;;;;;;;;10.69;100.00;100753.81;5107857;28;19970;-73
2022/01/18 13:39:35;;;;;;;;;;;;;;;10.87;100.00;100745.63;5075346;28;19925;-74
2022/01/18 13:42:04;;;;;;;;;;;;;;;10.80;100.00;100751.94;5074675;28;19931;-73
2022/01/18 13:44:31;;;;;;;;;;;;;;;10.81;100.00;100738.78;5074374;28;20023;-73
2022/01/18 13:47:24;;;;;;;;;;;;;;;10.66;100.00;100737.03;5074059;28;19931;-73
2022/01/18 13:49:51;;;;;;;;;;;;;;;10.50;100.00;100740.06;5072652;28;19924;-73
2022/01/18 13:52:18;;;;;;;;;;;;;;;10.05;100.00;100747.88;5075152;28;20023;-73
2022/01/18 13:54:50;;;;;;;;;;;;;;;9.90;100.00;100744.09;5074219;28;19972;-73
2022/01/18 13:57:20;;;;;;;;;;;;;;;10.12;100.00;100750.75;5075454;28;19924;-73
2022/01/18 13:59:49;;;;;;;;;;;;;;;9.99;100.00;100749.38;5074078;28;19924;-73
2022/01/18 14:02:17;;;;;;;;;;;;;;;9.82;100.00;100750.75;5107223;28;20019;-73
2022/01/18 14:04:45;;;;;;;;;;;;;;;9.68;100.00;100744.19;5075306;28;19924;-73
2022/01/18 14:07:13;;;;;;;;;;;;;;;9.82;100.00;100735.97;5075349;28;19925;-72
2022/01/18 14:09:40;;;;;;;;;;;;;;;9.71;100.00;100737.84;5107781;28;19978;-74